Watford, Canada
Current Conditions -  °F | °C
As of 11:00 AM on Wednesday 26 Nov 2014 (Local Time) from CYZR Reporting Station
Overcast Overcast  
Wind Chill:   Ceiling: 3300
Heat Index:   Visibility: 9mi
Dew Point: -6°   Wind: 0mph
Humidity: 64%   Direction: NA
Pressure: 30.17"   Gusts: NA
Location:  42.95°N, 81.88°W
Report Text: CYZR 261600Z AUTO 00000KT 9SM OVC033 00/M06 A3017 RMK SLP223
Loading
Personal Weather Stations






























Interactive Weather Map New forecast layout! Learn more

10-Day Weather Forecast

Advertisements
Track Severe Weather on mobile